sensor_id;sensor_type;location;lat;lon;timestamp;P1;durP1;ratioP1;P2;durP2;ratioP2
58528;SDS011;44322;52.968;5.816;2023-01-31T00:01:10;11.55;;;2.92;;
58528;SDS011;44322;52.968;5.816;2023-01-31T00:03:43;13.05;;;2.10;;
58528;SDS011;44322;52.968;5.816;2023-01-31T00:06:18;10.95;;;2.30;;
58528;SDS011;44322;52.968;5.816;2023-01-31T00:08:46;13.27;;;2.85;;
58528;SDS011;44322;52.968;5.816;2023-01-31T00:11:13;13.80;;;2.33;;
58528;SDS011;44322;52.968;5.816;2023-01-31T00:13:39;14.13;;;3.00;;
58528;SDS011;44322;52.968;5.816;2023-01-31T00:16:06;9.52;;;2.05;;
58528;SDS011;44322;52.968;5.816;2023-01-31T00:18:32;10.88;;;2.38;;
58528;SDS011;44322;52.968;5.816;2023-01-31T00:21:02;20.17;;;2.85;;
58528;SDS011;44322;52.968;5.816;2023-01-31T00:23:29;15.60;;;2.75;;
58528;SDS011;44322;52.968;5.816;2023-01-31T00:25:55;11.98;;;3.05;;
58528;SDS011;44322;52.968;5.816;2023-01-31T00:28:34;17.52;;;2.58;;
58528;SDS011;44322;52.968;5.816;2023-01-31T00:30:59;13.85;;;2.45;;
58528;SDS011;44322;52.968;5.816;2023-01-31T00:33:25;15.45;;;2.92;;
58528;SDS011;44322;52.968;5.816;2023-01-31T00:35:51;16.05;;;2.55;;
58528;SDS011;44322;52.968;5.816;2023-01-31T00:38:16;12.68;;;2.20;;
58528;SDS011;44322;52.968;5.816;2023-01-31T00:40:50;13.23;;;2.35;;
58528;SDS011;44322;52.968;5.816;2023-01-31T00:43:16;11.02;;;2.83;;
58528;SDS011;44322;52.968;5.816;2023-01-31T00:45:42;13.48;;;2.55;;
58528;SDS011;44322;52.968;5.816;2023-01-31T00:48:07;15.63;;;2.70;;
58528;SDS011;44322;52.968;5.816;2023-01-31T00:50:33;16.50;;;2.72;;
58528;SDS011;44322;52.968;5.816;2023-01-31T00:52:58;11.98;;;2.15;;
58528;SDS011;44322;52.968;5.816;2023-01-31T00:55:24;17.30;;;2.50;;
58528;SDS011;44322;52.968;5.816;2023-01-31T00:57:49;13.93;;;3.03;;
58528;SDS011;44322;52.968;5.816;2023-01-31T01:00:15;12.90;;;2.67;;
58528;SDS011;44322;52.968;5.816;2023-01-31T01:02:41;14.55;;;2.58;;
58528;SDS011;44322;52.968;5.816;2023-01-31T01:05:07;18.27;;;3.35;;
58528;SDS011;44322;52.968;5.816;2023-01-31T01:07:33;18.05;;;2.78;;
58528;SDS011;44322;52.968;5.816;2023-01-31T01:09:58;19.45;;;2.50;;
58528;SDS011;44322;52.968;5.816;2023-01-31T01:12:24;15.32;;;2.40;;
58528;SDS011;44322;52.968;5.816;2023-01-31T01:14:49;12.32;;;2.38;;
58528;SDS011;44322;52.968;5.816;2023-01-31T01:17:15;10.77;;;2.30;;
58528;SDS011;44322;52.968;5.816;2023-01-31T01:19:41;15.82;;;2.95;;
58528;SDS011;44322;52.968;5.816;2023-01-31T01:22:06;17.20;;;2.72;;
58528;SDS011;44322;52.968;5.816;2023-01-31T01:24:32;17.02;;;2.58;;
58528;SDS011;44322;52.968;5.816;2023-01-31T01:26:57;11.75;;;2.38;;
58528;SDS011;44322;52.968;5.816;2023-01-31T01:29:24;21.33;;;2.65;;
58528;SDS011;44322;52.968;5.816;2023-01-31T01:31:49;12.45;;;2.47;;
58528;SDS011;44322;52.968;5.816;2023-01-31T01:34:15;11.80;;;1.83;;
58528;SDS011;44322;52.968;5.816;2023-01-31T01:36:41;16.88;;;2.50;;
58528;SDS011;44322;52.968;5.816;2023-01-31T01:39:07;13.70;;;2.67;;
58528;SDS011;44322;52.968;5.816;2023-01-31T01:41:34;14.38;;;2.22;;
58528;SDS011;44322;52.968;5.816;2023-01-31T01:44:01;15.80;;;3.38;;
58528;SDS011;44322;52.968;5.816;2023-01-31T01:49:05;10.95;;;2.50;;
58528;SDS011;44322;52.968;5.816;2023-01-31T01:51:38;14.48;;;2.63;;
58528;SDS011;44322;52.968;5.816;2023-01-31T01:54:05;15.60;;;2.30;;
58528;SDS011;44322;52.968;5.816;2023-01-31T01:56:36;12.95;;;2.22;;
58528;SDS011;44322;52.968;5.816;2023-01-31T01:59:20;17.63;;;2.50;;
58528;SDS011;44322;52.968;5.816;2023-01-31T02:01:48;15.45;;;2.00;;
58528;SDS011;44322;52.968;5.816;2023-01-31T02:04:16;12.45;;;2.20;;
58528;SDS011;44322;52.968;5.816;2023-01-31T02:06:44;15.10;;;2.72;;
58528;SDS011;44322;52.968;5.816;2023-01-31T02:09:13;13.48;;;2.05;;
58528;SDS011;44322;52.968;5.816;2023-01-31T02:11:43;11.18;;;2.55;;
58528;SDS011;44322;52.968;5.816;2023-01-31T02:14:09;16.05;;;2.45;;
58528;SDS011;44322;52.968;5.816;2023-01-31T02:16:35;12.93;;;2.63;;
58528;SDS011;44322;52.968;5.816;2023-01-31T02:19:03;12.52;;;2.35;;
58528;SDS011;44322;52.968;5.816;2023-01-31T02:33:37;15.73;;;2.55;;
58528;SDS011;44322;52.968;5.816;2023-01-31T02:36:15;14.93;;;2.40;;
58528;SDS011;44322;52.968;5.816;2023-01-31T02:44:54;16.80;;;2.22;;
58528;SDS011;44322;52.968;5.816;2023-01-31T02:50:08;13.82;;;2.55;;
58528;SDS011;44322;52.968;5.816;2023-01-31T02:52:51;15.57;;;2.70;;
58528;SDS011;44322;52.968;5.816;2023-01-31T02:55:29;12.55;;;2.88;;
58528;SDS011;44322;52.968;5.816;2023-01-31T02:58:17;14.73;;;3.03;;
58528;SDS011;44322;52.968;5.816;2023-01-31T03:00:44;17.10;;;2.70;;
58528;SDS011;44322;52.968;5.816;2023-01-31T03:03:18;17.52;;;2.85;;
58528;SDS011;44322;52.968;5.816;2023-01-31T03:14:28;14.48;;;2.95;;
58528;SDS011;44322;52.968;5.816;2023-01-31T03:22:48;19.55;;;3.33;;
58528;SDS011;44322;52.968;5.816;2023-01-31T03:25:18;16.75;;;3.10;;
58528;SDS011;44322;52.968;5.816;2023-01-31T03:27:48;12.68;;;3.13;;
58528;SDS011;44322;52.968;5.816;2023-01-31T03:30:20;19.98;;;2.97;;
58528;SDS011;44322;52.968;5.816;2023-01-31T03:32:52;14.57;;;3.15;;
58528;SDS011;44322;52.968;5.816;2023-01-31T03:35:20;17.70;;;3.20;;
58528;SDS011;44322;52.968;5.816;2023-01-31T03:37:54;18.30;;;3.60;;
58528;SDS011;44322;52.968;5.816;2023-01-31T03:40:25;19.13;;;3.90;;
58528;SDS011;44322;52.968;5.816;2023-01-31T03:45:57;20.83;;;4.00;;
58528;SDS011;44322;52.968;5.816;2023-01-31T03:48:27;19.00;;;4.07;;
58528;SDS011;44322;52.968;5.816;2023-01-31T03:50:56;18.30;;;4.55;;
58528;SDS011;44322;52.968;5.816;2023-01-31T03:53:24;13.57;;;3.47;;
58528;SDS011;44322;52.968;5.816;2023-01-31T03:55:56;19.73;;;3.83;;
58528;SDS011;44322;52.968;5.816;2023-01-31T03:58:27;17.08;;;3.67;;
58528;SDS011;44322;52.968;5.816;2023-01-31T04:00:59;19.17;;;3.72;;
58528;SDS011;44322;52.968;5.816;2023-01-31T04:03:31;14.68;;;3.67;;
58528;SDS011;44322;52.968;5.816;2023-01-31T04:06:10;16.67;;;3.67;;
58528;SDS011;44322;52.968;5.816;2023-01-31T04:08:36;28.08;;;5.00;;
58528;SDS011;44322;52.968;5.816;2023-01-31T04:11:07;25.75;;;5.25;;
58528;SDS011;44322;52.968;5.816;2023-01-31T04:13:34;23.95;;;4.47;;
58528;SDS011;44322;52.968;5.816;2023-01-31T04:16:00;18.50;;;3.90;;
58528;SDS011;44322;52.968;5.816;2023-01-31T04:18:26;25.63;;;5.35;;
58528;SDS011;44322;52.968;5.816;2023-01-31T04:20:52;24.23;;;5.45;;
58528;SDS011;44322;52.968;5.816;2023-01-31T04:23:17;19.10;;;4.28;;
58528;SDS011;44322;52.968;5.816;2023-01-31T04:25:44;20.40;;;4.88;;
58528;SDS011;44322;52.968;5.816;2023-01-31T04:28:09;18.00;;;4.25;;
58528;SDS011;44322;52.968;5.816;2023-01-31T04:30:35;17.92;;;3.65;;
58528;SDS011;44322;52.968;5.816;2023-01-31T04:33:01;22.70;;;4.88;;
58528;SDS011;44322;52.968;5.816;2023-01-31T04:35:27;22.42;;;4.03;;
58528;SDS011;44322;52.968;5.816;2023-01-31T04:37:53;24.27;;;4.30;;
58528;SDS011;44322;52.968;5.816;2023-01-31T04:40:19;17.42;;;4.53;;
58528;SDS011;44322;52.968;5.816;2023-01-31T04:42:44;26.80;;;5.45;;
58528;SDS011;44322;52.968;5.816;2023-01-31T04:45:10;22.48;;;4.35;;
58528;SDS011;44322;52.968;5.816;2023-01-31T04:47:35;18.10;;;3.90;;
58528;SDS011;44322;52.968;5.816;2023-01-31T04:50:01;25.75;;;4.78;;
58528;SDS011;44322;52.968;5.816;2023-01-31T04:52:27;22.92;;;4.75;;
58528;SDS011;44322;52.968;5.816;2023-01-31T04:54:53;26.88;;;5.53;;
58528;SDS011;44322;52.968;5.816;2023-01-31T04:57:18;20.52;;;4.22;;
58528;SDS011;44322;52.968;5.816;2023-01-31T04:59:44;24.42;;;5.15;;
58528;SDS011;44322;52.968;5.816;2023-01-31T05:02:10;22.55;;;4.28;;
58528;SDS011;44322;52.968;5.816;2023-01-31T05:04:38;18.63;;;4.07;;
58528;SDS011;44322;52.968;5.816;2023-01-31T05:07:04;18.60;;;4.65;;
58528;SDS011;44322;52.968;5.816;2023-01-31T05:09:30;21.83;;;4.75;;
58528;SDS011;44322;52.968;5.816;2023-01-31T05:11:55;22.70;;;5.28;;
58528;SDS011;44322;52.968;5.816;2023-01-31T05:14:21;22.75;;;4.57;;
58528;SDS011;44322;52.968;5.816;2023-01-31T05:16:46;22.25;;;5.00;;
58528;SDS011;44322;52.968;5.816;2023-01-31T05:19:15;23.67;;;4.68;;
58528;SDS011;44322;52.968;5.816;2023-01-31T05:21:41;18.92;;;4.50;;
58528;SDS011;44322;52.968;5.816;2023-01-31T05:24:19;25.38;;;5.05;;
58528;SDS011;44322;52.968;5.816;2023-01-31T05:26:46;27.13;;;5.47;;
58528;SDS011;44322;52.968;5.816;2023-01-31T05:29:12;29.40;;;5.22;;
58528;SDS011;44322;52.968;5.816;2023-01-31T05:31:38;20.52;;;4.55;;
58528;SDS011;44322;52.968;5.816;2023-01-31T05:34:03;22.63;;;5.53;;
58528;SDS011;44322;52.968;5.816;2023-01-31T05:36:29;22.55;;;5.05;;
58528;SDS011;44322;52.968;5.816;2023-01-31T05:38:54;22.52;;;4.88;;
58528;SDS011;44322;52.968;5.816;2023-01-31T05:41:20;23.45;;;5.20;;
58528;SDS011;44322;52.968;5.816;2023-01-31T05:43:45;26.73;;;5.30;;
58528;SDS011;44322;52.968;5.816;2023-01-31T05:46:11;29.52;;;5.50;;
58528;SDS011;44322;52.968;5.816;2023-01-31T05:48:37;22.30;;;4.68;;
58528;SDS011;44322;52.968;5.816;2023-01-31T05:51:02;19.02;;;4.10;;
58528;SDS011;44322;52.968;5.816;2023-01-31T05:53:28;29.52;;;5.82;;
58528;SDS011;44322;52.968;5.816;2023-01-31T05:55:54;23.58;;;4.60;;
58528;SDS011;44322;52.968;5.816;2023-01-31T05:58:19;21.00;;;4.75;;
58528;SDS011;44322;52.968;5.816;2023-01-31T06:00:45;21.05;;;4.50;;
58528;SDS011;44322;52.968;5.816;2023-01-31T06:03:10;23.02;;;4.82;;
58528;SDS011;44322;52.968;5.816;2023-01-31T06:05:36;18.05;;;4.70;;
58528;SDS011;44322;52.968;5.816;2023-01-31T06:08:04;27.67;;;5.75;;
58528;SDS011;44322;52.968;5.816;2023-01-31T06:10:30;21.23;;;4.18;;
58528;SDS011;44322;52.968;5.816;2023-01-31T06:12:56;20.80;;;4.38;;
58528;SDS011;44322;52.968;5.816;2023-01-31T06:15:21;22.30;;;4.65;;
58528;SDS011;44322;52.968;5.816;2023-01-31T06:17:47;16.60;;;3.90;;
58528;SDS011;44322;52.968;5.816;2023-01-31T06:20:12;23.92;;;5.22;;
58528;SDS011;44322;52.968;5.816;2023-01-31T06:22:38;16.90;;;4.18;;
58528;SDS011;44322;52.968;5.816;2023-01-31T06:25:05;17.17;;;3.65;;
58528;SDS011;44322;52.968;5.816;2023-01-31T06:27:31;22.10;;;4.68;;
58528;SDS011;44322;52.968;5.816;2023-01-31T06:29:57;19.58;;;4.35;;
58528;SDS011;44322;52.968;5.816;2023-01-31T06:32:23;20.45;;;4.20;;
58528;SDS011;44322;52.968;5.816;2023-01-31T06:34:49;23.25;;;4.18;;
58528;SDS011;44322;52.968;5.816;2023-01-31T06:37:14;19.83;;;4.28;;
58528;SDS011;44322;52.968;5.816;2023-01-31T06:39:40;17.77;;;4.20;;
58528;SDS011;44322;52.968;5.816;2023-01-31T06:42:05;21.92;;;3.53;;
58528;SDS011;44322;52.968;5.816;2023-01-31T06:44:31;20.08;;;4.38;;
58528;SDS011;44322;52.968;5.816;2023-01-31T06:47:01;19.70;;;3.80;;
58528;SDS011;44322;52.968;5.816;2023-01-31T06:49:27;19.45;;;3.83;;
58528;SDS011;44322;52.968;5.816;2023-01-31T06:51:53;17.58;;;3.63;;
58528;SDS011;44322;52.968;5.816;2023-01-31T06:54:18;20.90;;;3.78;;
58528;SDS011;44322;52.968;5.816;2023-01-31T06:56:44;15.65;;;3.65;;
58528;SDS011;44322;52.968;5.816;2023-01-31T06:59:09;14.63;;;2.95;;
58528;SDS011;44322;52.968;5.816;2023-01-31T07:01:35;17.50;;;3.53;;
58528;SDS011;44322;52.968;5.816;2023-01-31T07:04:00;15.82;;;3.15;;
58528;SDS011;44322;52.968;5.816;2023-01-31T07:06:26;16.83;;;3.63;;
58528;SDS011;44322;52.968;5.816;2023-01-31T07:08:52;19.25;;;3.45;;
58528;SDS011;44322;52.968;5.816;2023-01-31T07:11:17;18.05;;;3.38;;
58528;SDS011;44322;52.968;5.816;2023-01-31T07:13:43;15.90;;;3.78;;
58528;SDS011;44322;52.968;5.816;2023-01-31T07:16:12;20.13;;;3.10;;
58528;SDS011;44322;52.968;5.816;2023-01-31T07:18:38;21.73;;;3.85;;
58528;SDS011;44322;52.968;5.816;2023-01-31T07:21:04;17.02;;;3.15;;
58528;SDS011;44322;52.968;5.816;2023-01-31T07:23:30;21.02;;;3.97;;
58528;SDS011;44322;52.968;5.816;2023-01-31T07:25:56;18.52;;;3.72;;
58528;SDS011;44322;52.968;5.816;2023-01-31T07:28:21;20.50;;;3.53;;
58528;SDS011;44322;52.968;5.816;2023-01-31T07:30:47;13.15;;;2.53;;
58528;SDS011;44322;52.968;5.816;2023-01-31T07:33:12;21.95;;;3.83;;
58528;SDS011;44322;52.968;5.816;2023-01-31T07:35:40;12.07;;;2.90;;
58528;SDS011;44322;52.968;5.816;2023-01-31T07:38:06;20.95;;;3.75;;
58528;SDS011;44322;52.968;5.816;2023-01-31T07:40:32;12.38;;;2.80;;
58528;SDS011;44322;52.968;5.816;2023-01-31T07:42:58;17.77;;;2.88;;
58528;SDS011;44322;52.968;5.816;2023-01-31T07:45:23;19.77;;;3.20;;
58528;SDS011;44322;52.968;5.816;2023-01-31T07:47:49;20.38;;;3.10;;
58528;SDS011;44322;52.968;5.816;2023-01-31T07:50:16;16.77;;;2.85;;
58528;SDS011;44322;52.968;5.816;2023-01-31T07:52:41;15.50;;;3.47;;
58528;SDS011;44322;52.968;5.816;2023-01-31T07:55:07;15.93;;;2.75;;
58528;SDS011;44322;52.968;5.816;2023-01-31T07:57:33;14.65;;;2.60;;
58528;SDS011;44322;52.968;5.816;2023-01-31T07:59:58;17.13;;;3.38;;
58528;SDS011;44322;52.968;5.816;2023-01-31T08:02:25;12.25;;;2.63;;
58528;SDS011;44322;52.968;5.816;2023-01-31T08:05:09;17.67;;;3.33;;
58528;SDS011;44322;52.968;5.816;2023-01-31T08:07:36;16.90;;;3.30;;
58528;SDS011;44322;52.968;5.816;2023-01-31T08:10:01;18.45;;;3.22;;
58528;SDS011;44322;52.968;5.816;2023-01-31T08:12:27;12.60;;;3.13;;
58528;SDS011;44322;52.968;5.816;2023-01-31T08:14:53;21.42;;;3.42;;
58528;SDS011;44322;52.968;5.816;2023-01-31T08:17:19;16.70;;;3.10;;
58528;SDS011;44322;52.968;5.816;2023-01-31T08:19:44;15.13;;;3.22;;
58528;SDS011;44322;52.968;5.816;2023-01-31T08:22:10;17.80;;;3.15;;
58528;SDS011;44322;52.968;5.816;2023-01-31T08:24:35;12.60;;;2.70;;
58528;SDS011;44322;52.968;5.816;2023-01-31T08:27:01;13.27;;;2.83;;
58528;SDS011;44322;52.968;5.816;2023-01-31T08:29:27;13.60;;;3.03;;
58528;SDS011;44322;52.968;5.816;2023-01-31T08:31:53;19.25;;;3.58;;
58528;SDS011;44322;52.968;5.816;2023-01-31T08:34:19;17.58;;;3.85;;
58528;SDS011;44322;52.968;5.816;2023-01-31T08:36:45;16.85;;;3.42;;
58528;SDS011;44322;52.968;5.816;2023-01-31T08:39:10;16.05;;;3.22;;
58528;SDS011;44322;52.968;5.816;2023-01-31T08:41:37;12.90;;;3.70;;
58528;SDS011;44322;52.968;5.816;2023-01-31T08:44:03;15.05;;;3.33;;
58528;SDS011;44322;52.968;5.816;2023-01-31T08:46:30;15.25;;;3.47;;
58528;SDS011;44322;52.968;5.816;2023-01-31T08:49:00;13.15;;;2.78;;
58528;SDS011;44322;52.968;5.816;2023-01-31T08:51:27;19.48;;;4.22;;
58528;SDS011;44322;52.968;5.816;2023-01-31T08:53:52;16.50;;;3.30;;
58528;SDS011;44322;52.968;5.816;2023-01-31T08:56:18;16.88;;;2.90;;
58528;SDS011;44322;52.968;5.816;2023-01-31T08:58:45;15.85;;;2.83;;
58528;SDS011;44322;52.968;5.816;2023-01-31T09:01:14;17.05;;;2.95;;
58528;SDS011;44322;52.968;5.816;2023-01-31T09:03:41;22.27;;;3.55;;
58528;SDS011;44322;52.968;5.816;2023-01-31T09:06:09;15.27;;;3.78;;
58528;SDS011;44322;52.968;5.816;2023-01-31T09:08:37;24.10;;;3.88;;
58528;SDS011;44322;52.968;5.816;2023-01-31T09:11:02;19.70;;;4.00;;
58528;SDS011;44322;52.968;5.816;2023-01-31T09:13:28;19.60;;;4.45;;
58528;SDS011;44322;52.968;5.816;2023-01-31T09:16:02;17.70;;;3.92;;
58528;SDS011;44322;52.968;5.816;2023-01-31T09:18:33;22.92;;;4.55;;
58528;SDS011;44322;52.968;5.816;2023-01-31T09:21:06;16.90;;;3.42;;
58528;SDS011;44322;52.968;5.816;2023-01-31T09:23:33;21.10;;;4.88;;
58528;SDS011;44322;52.968;5.816;2023-01-31T09:25:59;20.77;;;4.35;;
58528;SDS011;44322;52.968;5.816;2023-01-31T09:28:26;17.30;;;3.72;;
58528;SDS011;44322;52.968;5.816;2023-01-31T09:30:52;23.33;;;4.03;;
58528;SDS011;44322;52.968;5.816;2023-01-31T09:33:20;17.20;;;3.80;;
58528;SDS011;44322;52.968;5.816;2023-01-31T09:35:54;22.45;;;3.80;;
58528;SDS011;44322;52.968;5.816;2023-01-31T09:38:23;15.68;;;3.78;;
58528;SDS011;44322;52.968;5.816;2023-01-31T09:40:49;23.95;;;4.15;;
58528;SDS011;44322;52.968;5.816;2023-01-31T09:43:15;21.38;;;3.97;;
58528;SDS011;44322;52.968;5.816;2023-01-31T09:45:42;22.35;;;4.25;;
58528;SDS011;44322;52.968;5.816;2023-01-31T09:48:09;18.67;;;4.13;;
58528;SDS011;44322;52.968;5.816;2023-01-31T09:50:41;19.17;;;4.47;;
58528;SDS011;44322;52.968;5.816;2023-01-31T09:53:11;20.98;;;3.83;;
58528;SDS011;44322;52.968;5.816;2023-01-31T09:59:10;23.00;;;4.55;;
58528;SDS011;44322;52.968;5.816;2023-01-31T10:06:48;15.13;;;4.20;;
58528;SDS011;44322;52.968;5.816;2023-01-31T10:09:28;19.25;;;4.40;;
58528;SDS011;44322;52.968;5.816;2023-01-31T10:12:08;16.00;;;3.67;;
58528;SDS011;44322;52.968;5.816;2023-01-31T10:14:50;21.85;;;3.67;;
58528;SDS011;44322;52.968;5.816;2023-01-31T10:17:33;23.00;;;4.18;;
58528;SDS011;44322;52.968;5.816;2023-01-31T10:20:12;18.83;;;4.57;;
58528;SDS011;44322;52.968;5.816;2023-01-31T10:23:10;19.90;;;4.03;;
58528;SDS011;44322;52.968;5.816;2023-01-31T10:31:24;21.33;;;3.72;;
58528;SDS011;44322;52.968;5.816;2023-01-31T10:36:12;25.33;;;4.10;;
58528;SDS011;44322;52.968;5.816;2023-01-31T10:38:53;18.77;;;4.05;;
58528;SDS011;44322;52.968;5.816;2023-01-31T10:44:23;18.58;;;3.45;;
58528;SDS011;44322;52.968;5.816;2023-01-31T10:46:54;18.08;;;3.60;;
58528;SDS011;44322;52.968;5.816;2023-01-31T10:49:21;22.25;;;4.07;;
58528;SDS011;44322;52.968;5.816;2023-01-31T10:57:37;19.77;;;3.78;;
58528;SDS011;44322;52.968;5.816;2023-01-31T11:00:03;17.45;;;4.03;;
58528;SDS011;44322;52.968;5.816;2023-01-31T11:02:29;17.45;;;3.17;;
58528;SDS011;44322;52.968;5.816;2023-01-31T11:04:56;16.58;;;3.22;;
58528;SDS011;44322;52.968;5.816;2023-01-31T11:07:23;16.40;;;3.35;;
58528;SDS011;44322;52.968;5.816;2023-01-31T11:09:50;18.50;;;3.22;;
58528;SDS011;44322;52.968;5.816;2023-01-31T11:12:21;16.85;;;3.85;;
58528;SDS011;44322;52.968;5.816;2023-01-31T11:15:05;14.63;;;3.20;;
58528;SDS011;44322;52.968;5.816;2023-01-31T11:17:35;13.70;;;3.13;;
58528;SDS011;44322;52.968;5.816;2023-01-31T11:20:01;17.88;;;3.63;;
58528;SDS011;44322;52.968;5.816;2023-01-31T11:22:30;16.52;;;4.88;;
58528;SDS011;44322;52.968;5.816;2023-01-31T11:24:57;20.65;;;3.70;;
58528;SDS011;44322;52.968;5.816;2023-01-31T11:27:27;19.73;;;3.88;;
58528;SDS011;44322;52.968;5.816;2023-01-31T11:29:55;17.90;;;3.50;;
58528;SDS011;44322;52.968;5.816;2023-01-31T11:32:23;14.85;;;3.95;;
58528;SDS011;44322;52.968;5.816;2023-01-31T11:34:57;15.50;;;3.35;;
58528;SDS011;44322;52.968;5.816;2023-01-31T11:37:24;19.90;;;3.60;;
58528;SDS011;44322;52.968;5.816;2023-01-31T11:39:56;19.33;;;3.45;;
58528;SDS011;44322;52.968;5.816;2023-01-31T11:42:50;16.55;;;3.35;;
58528;SDS011;44322;52.968;5.816;2023-01-31T11:45:17;18.42;;;3.78;;
58528;SDS011;44322;52.968;5.816;2023-01-31T11:47:46;15.35;;;3.20;;
58528;SDS011;44322;52.968;5.816;2023-01-31T11:50:20;16.92;;;3.13;;
58528;SDS011;44322;52.968;5.816;2023-01-31T11:53:15;19.20;;;4.68;;
58528;SDS011;44322;52.968;5.816;2023-01-31T11:55:42;15.77;;;3.30;;
58528;SDS011;44322;52.968;5.816;2023-01-31T11:58:22;12.60;;;2.97;;
58528;SDS011;44322;52.968;5.816;2023-01-31T12:04:10;14.70;;;2.72;;
58528;SDS011;44322;52.968;5.816;2023-01-31T12:06:39;16.75;;;3.05;;
58528;SDS011;44322;52.968;5.816;2023-01-31T12:09:18;15.57;;;3.47;;
58528;SDS011;44322;52.968;5.816;2023-01-31T12:11:50;12.40;;;3.35;;
58528;SDS011;44322;52.968;5.816;2023-01-31T12:14:17;13.23;;;3.00;;
58528;SDS011;44322;52.968;5.816;2023-01-31T12:16:43;12.73;;;2.65;;
58528;SDS011;44322;52.968;5.816;2023-01-31T12:21:51;14.50;;;2.80;;
58528;SDS011;44322;52.968;5.816;2023-01-31T12:24:41;15.33;;;3.40;;
58528;SDS011;44322;52.968;5.816;2023-01-31T12:35:17;13.18;;;2.70;;
58528;SDS011;44322;52.968;5.816;2023-01-31T12:38:10;17.25;;;3.60;;
58528;SDS011;44322;52.968;5.816;2023-01-31T13:02:51;13.10;;;2.83;;
58528;SDS011;44322;52.968;5.816;2023-01-31T13:05:46;14.98;;;3.28;;
58528;SDS011;44322;52.968;5.816;2023-01-31T13:08:26;14.88;;;2.97;;
58528;SDS011;44322;52.968;5.816;2023-01-31T13:14:01;13.65;;;3.90;;
58528;SDS011;44322;52.968;5.816;2023-01-31T13:16:28;15.23;;;3.08;;
58528;SDS011;44322;52.968;5.816;2023-01-31T13:18:57;12.75;;;3.92;;
58528;SDS011;44322;52.968;5.816;2023-01-31T13:21:29;17.40;;;2.55;;
58528;SDS011;44322;52.968;5.816;2023-01-31T13:24:00;10.20;;;2.80;;
58528;SDS011;44322;52.968;5.816;2023-01-31T13:26:28;11.93;;;2.90;;
58528;SDS011;44322;52.968;5.816;2023-01-31T13:28:59;15.02;;;2.90;;
58528;SDS011;44322;52.968;5.816;2023-01-31T13:37:16;15.05;;;3.00;;
58528;SDS011;44322;52.968;5.816;2023-01-31T13:39:50;14.20;;;3.67;;
58528;SDS011;44322;52.968;5.816;2023-01-31T13:42:18;12.88;;;3.55;;
58528;SDS011;44322;52.968;5.816;2023-01-31T13:44:45;10.25;;;3.72;;
58528;SDS011;44322;52.968;5.816;2023-01-31T13:49:57;13.40;;;3.00;;
58528;SDS011;44322;52.968;5.816;2023-01-31T13:55:00;13.57;;;3.63;;
58528;SDS011;44322;52.968;5.816;2023-01-31T13:57:34;14.65;;;3.38;;
58528;SDS011;44322;52.968;5.816;2023-01-31T14:03:08;16.23;;;3.95;;
58528;SDS011;44322;52.968;5.816;2023-01-31T14:11:29;16.30;;;3.72;;
58528;SDS011;44322;52.968;5.816;2023-01-31T14:29:46;17.23;;;3.00;;
58528;SDS011;44322;52.968;5.816;2023-01-31T14:34:40;16.42;;;3.38;;
58528;SDS011;44322;52.968;5.816;2023-01-31T14:37:15;20.95;;;4.18;;
58528;SDS011;44322;52.968;5.816;2023-01-31T14:43:13;14.88;;;3.50;;
58528;SDS011;44322;52.968;5.816;2023-01-31T14:48:46;14.82;;;3.38;;
58528;SDS011;44322;52.968;5.816;2023-01-31T14:59:31;15.73;;;3.90;;
58528;SDS011;44322;52.968;5.816;2023-01-31T15:01:58;19.52;;;3.63;;
58528;SDS011;44322;52.968;5.816;2023-01-31T15:04:52;18.50;;;3.63;;
58528;SDS011;44322;52.968;5.816;2023-01-31T15:07:19;19.27;;;3.88;;
58528;SDS011;44322;52.968;5.816;2023-01-31T15:09:45;19.35;;;3.50;;
58528;SDS011;44322;52.968;5.816;2023-01-31T15:14:57;22.08;;;3.85;;
58528;SDS011;44322;52.968;5.816;2023-01-31T15:17:23;18.48;;;4.50;;
58528;SDS011;44322;52.968;5.816;2023-01-31T15:20:39;22.80;;;4.22;;
58528;SDS011;44322;52.968;5.816;2023-01-31T15:22:43;18.98;;;4.18;;
58528;SDS011;44322;52.968;5.816;2023-01-31T15:25:28;18.85;;;4.00;;
58528;SDS011;44322;52.968;5.816;2023-01-31T15:27:55;24.35;;;4.22;;
58528;SDS011;44322;52.968;5.816;2023-01-31T15:30:21;18.92;;;3.92;;
58528;SDS011;44322;52.968;5.816;2023-01-31T15:32:50;15.02;;;4.05;;
58528;SDS011;44322;52.968;5.816;2023-01-31T15:35:34;23.92;;;4.78;;
58528;SDS011;44322;52.968;5.816;2023-01-31T15:43:53;19.85;;;4.72;;
58528;SDS011;44322;52.968;5.816;2023-01-31T15:46:31;24.67;;;4.72;;
58528;SDS011;44322;52.968;5.816;2023-01-31T15:48:58;23.42;;;4.43;;
58528;SDS011;44322;52.968;5.816;2023-01-31T15:51:25;17.83;;;3.43;;
58528;SDS011;44322;52.968;5.816;2023-01-31T15:54:01;21.73;;;4.13;;
58528;SDS011;44322;52.968;5.816;2023-01-31T15:56:29;22.85;;;4.88;;
58528;SDS011;44322;52.968;5.816;2023-01-31T15:58:56;22.25;;;4.60;;
58528;SDS011;44322;52.968;5.816;2023-01-31T16:01:22;19.35;;;4.15;;
58528;SDS011;44322;52.968;5.816;2023-01-31T16:03:51;18.13;;;4.57;;
58528;SDS011;44322;52.968;5.816;2023-01-31T16:06:24;22.05;;;4.07;;
58528;SDS011;44322;52.968;5.816;2023-01-31T16:08:52;19.55;;;3.92;;
58528;SDS011;44322;52.968;5.816;2023-01-31T16:13:45;25.15;;;5.55;;
58528;SDS011;44322;52.968;5.816;2023-01-31T16:16:11;22.23;;;4.82;;
58528;SDS011;44322;52.968;5.816;2023-01-31T16:18:44;21.75;;;5.47;;
58528;SDS011;44322;52.968;5.816;2023-01-31T16:21:23;22.40;;;4.47;;
58528;SDS011;44322;52.968;5.816;2023-01-31T16:24:14;24.17;;;5.57;;
58528;SDS011;44322;52.968;5.816;2023-01-31T16:27:00;23.88;;;4.63;;
58528;SDS011;44322;52.968;5.816;2023-01-31T16:29:37;21.27;;;4.20;;
58528;SDS011;44322;52.968;5.816;2023-01-31T16:32:13;18.90;;;4.50;;
58528;SDS011;44322;52.968;5.816;2023-01-31T16:34:39;24.73;;;4.60;;
58528;SDS011;44322;52.968;5.816;2023-01-31T16:37:06;22.17;;;4.70;;
58528;SDS011;44322;52.968;5.816;2023-01-31T16:42:05;21.02;;;4.72;;
58528;SDS011;44322;52.968;5.816;2023-01-31T16:44:34;25.42;;;5.45;;
58528;SDS011;44322;52.968;5.816;2023-01-31T16:47:01;27.13;;;4.82;;
58528;SDS011;44322;52.968;5.816;2023-01-31T16:49:29;22.53;;;4.60;;
58528;SDS011;44322;52.968;5.816;2023-01-31T16:54:24;21.75;;;4.25;;
58528;SDS011;44322;52.968;5.816;2023-01-31T17:02:03;22.95;;;4.38;;
58528;SDS011;44322;52.968;5.816;2023-01-31T17:04:41;24.77;;;4.82;;
58528;SDS011;44322;52.968;5.816;2023-01-31T17:07:12;21.02;;;5.05;;
58528;SDS011;44322;52.968;5.816;2023-01-31T17:09:43;18.92;;;4.57;;
58528;SDS011;44322;52.968;5.816;2023-01-31T17:12:15;22.67;;;4.75;;
58528;SDS011;44322;52.968;5.816;2023-01-31T17:14:42;20.25;;;4.60;;
58528;SDS011;44322;52.968;5.816;2023-01-31T17:17:09;25.08;;;5.28;;
58528;SDS011;44322;52.968;5.816;2023-01-31T17:19:35;18.55;;;4.22;;
58528;SDS011;44322;52.968;5.816;2023-01-31T17:22:01;19.88;;;5.53;;
58528;SDS011;44322;52.968;5.816;2023-01-31T17:24:27;19.98;;;4.97;;
58528;SDS011;44322;52.968;5.816;2023-01-31T17:26:53;22.30;;;4.82;;
58528;SDS011;44322;52.968;5.816;2023-01-31T17:29:19;20.63;;;4.53;;
58528;SDS011;44322;52.968;5.816;2023-01-31T17:31:45;20.48;;;3.72;;
58528;SDS011;44322;52.968;5.816;2023-01-31T17:34:14;22.83;;;3.42;;
58528;SDS011;44322;52.968;5.816;2023-01-31T17:36:41;26.15;;;4.25;;
58528;SDS011;44322;52.968;5.816;2023-01-31T17:39:07;26.73;;;4.45;;
58528;SDS011;44322;52.968;5.816;2023-01-31T17:41:33;18.33;;;4.20;;
58528;SDS011;44322;52.968;5.816;2023-01-31T17:43:59;22.75;;;4.10;;